Time;durP1;ratioP1;P1;durP2;ratioP2;P2;SDS_P1;SDS_P2;PMS_P1;PMS_P2;Temp;Humidity;BMP_temperature;BMP_pressure;BME280_temperature;BME280_humidity;BME280_pressure;Samples;Min_cycle;Max_cycle;Signal;HPM_P1;HPM_P2
2022/10/22 00:00:04;;;;;;;11.53;6.37;;;14.20;99.90;;;;;;5034237;28;20225;-81
2022/10/22 00:02:31;;;;;;;7.57;5.90;;;14.20;99.90;;;;;;5034849;28;20634;-80
2022/10/22 00:04:57;;;;;;;12.00;6.50;;;14.20;99.90;;;;;;5034656;28;20203;-84
2022/10/22 00:07:25;;;;;;;13.97;7.30;;;14.20;99.90;;;;;;5034889;28;20594;-79
2022/10/22 00:09:53;;;;;;;13.20;7.53;;;14.10;99.90;;;;;;5034727;28;20202;-83
2022/10/22 00:12:20;;;;;;;9.43;6.70;;;14.10;99.90;;;;;;5035126;28;20235;-81
2022/10/22 00:14:48;;;;;;;10.27;6.80;;;14.10;99.90;;;;;;5034400;28;20211;-82
2022/10/22 00:17:15;;;;;;;8.70;6.43;;;14.10;99.90;;;;;;5034547;28;20285;-80
2022/10/22 00:19:42;;;;;;;9.97;6.50;;;14.10;99.90;;;;;;5034700;28;20222;-82
2022/10/22 00:22:09;;;;;;;10.70;6.80;;;14.10;99.90;;;;;;5034358;28;20195;-83
2022/10/22 00:24:38;;;;;;;11.17;6.30;;;14.10;99.90;;;;;;5034091;28;20202;-80
2022/10/22 00:27:07;;;;;;;9.03;5.87;;;14.00;99.90;;;;;;5034258;28;20493;-81
2022/10/22 00:29:34;;;;;;;10.67;6.00;;;14.10;99.90;;;;;;5034489;28;20202;-81
2022/10/22 00:32:02;;;;;;;14.13;5.63;;;14.10;99.90;;;;;;5032997;28;20187;-80
2022/10/22 00:34:29;;;;;;;10.83;6.03;;;14.00;99.90;;;;;;5034034;28;20198;-80
2022/10/22 00:36:56;;;;;;;7.33;4.93;;;14.00;99.90;;;;;;5033840;28;20206;-80
2022/10/22 00:39:24;;;;;;;10.77;5.83;;;14.00;99.90;;;;;;5033142;28;20238;-79
2022/10/22 00:41:53;;;;;;;9.73;5.40;;;14.00;99.90;;;;;;5033577;28;20195;-80
2022/10/22 00:44:57;;;;;;;11.97;5.70;;;14.10;99.90;;;;;;5038010;28;20204;-80
2022/10/22 00:47:27;;;;;;;9.80;6.07;;;14.10;99.90;;;;;;5033621;28;20209;-80
2022/10/22 00:49:55;;;;;;;8.70;5.77;;;14.00;99.90;;;;;;5034119;28;20201;-80
2022/10/22 00:52:22;;;;;;;8.13;5.60;;;14.10;99.90;;;;;;5049895;28;20202;-79
2022/10/22 00:54:50;;;;;;;9.13;5.30;;;14.10;99.90;;;;;;5052072;28;20221;-80
2022/10/22 00:57:19;;;;;;;12.10;5.20;;;14.10;99.90;;;;;;5053425;28;20982;-78
2022/10/22 00:59:46;;;;;;;11.60;5.50;;;14.10;99.90;;;;;;5038367;28;20213;-83
2022/10/22 01:02:14;;;;;;;10.07;5.63;;;14.10;99.90;;;;;;5032378;28;20202;-78
2022/10/22 01:04:42;;;;;;;8.73;5.10;;;14.10;99.90;;;;;;5032674;28;20202;-80
2022/10/22 01:07:16;;;;;;;9.43;5.03;;;14.10;99.90;;;;;;5032744;28;20206;-80
2022/10/22 01:09:49;;;;;;;11.23;5.43;;;14.10;99.90;;;;;;5033391;28;20202;-79
2022/10/22 01:12:23;;;;;;;10.63;5.50;;;14.20;99.90;;;;;;5032985;28;20229;-81
2022/10/22 01:15:06;;;;;;;12.03;5.30;;;14.20;99.90;;;;;;5032804;28;20738;-84
2022/10/22 01:17:40;;;;;;;12.83;5.43;;;14.20;99.90;;;;;;5032924;28;20228;-80
2022/10/22 01:20:22;;;;;;;10.17;5.00;;;14.20;99.90;;;;;;5033496;28;20616;-79
2022/10/22 01:23:01;;;;;;;10.27;5.67;;;14.30;99.90;;;;;;5033569;28;20209;-82
2022/10/22 01:25:34;;;;;;;9.67;4.70;;;14.30;99.90;;;;;;5033701;28;20198;-79
2022/10/22 01:28:16;;;;;;;12.47;5.43;;;14.30;99.90;;;;;;5032155;28;20207;-79
2022/10/22 01:30:46;;;;;;;7.60;5.43;;;14.30;99.90;;;;;;5033110;28;20203;-80
2022/10/22 01:33:17;;;;;;;7.40;5.07;;;14.30;99.90;;;;;;5032259;28;20202;-80
2022/10/22 01:35:45;;;;;;;12.63;5.83;;;14.30;99.90;;;;;;5031220;28;20206;-78
2022/10/22 01:38:17;;;;;;;12.13;5.30;;;14.30;99.90;;;;;;5032479;28;20313;-79
2022/10/22 01:40:45;;;;;;;11.07;5.00;;;14.40;99.90;;;;;;5032496;28;20750;-79
2022/10/22 01:43:12;;;;;;;5.83;4.80;;;14.40;99.90;;;;;;5031207;28;20608;-79
2022/10/22 01:45:45;;;;;;;11.80;5.63;;;14.40;99.90;;;;;;5032254;28;20206;-81
2022/10/22 01:48:29;;;;;;;10.60;5.10;;;14.40;99.90;;;;;;5032508;28;20233;-78
2022/10/22 01:51:24;;;;;;;10.67;5.27;;;14.50;99.90;;;;;;5032438;28;20197;-79
2022/10/22 01:53:54;;;;;;;12.93;5.17;;;14.50;99.90;;;;;;5032388;28;20293;-80
2022/10/22 01:56:45;;;;;;;7.97;4.50;;;14.50;99.90;;;;;;5031973;28;20218;-79
2022/10/22 01:59:17;;;;;;;11.23;4.50;;;14.50;99.90;;;;;;5032471;28;20233;-78
2022/10/22 02:01:53;;;;;;;7.93;4.70;;;14.50;99.90;;;;;;5032307;28;20195;-79
2022/10/22 02:04:24;;;;;;;12.67;4.90;;;14.60;99.90;;;;;;5031359;28;20210;-80
2022/10/22 02:06:53;;;;;;;9.30;4.93;;;14.50;99.90;;;;;;5032276;28;20201;-79
2022/10/22 02:09:22;;;;;;;11.23;4.57;;;14.60;99.90;;;;;;5031414;28;20609;-79
2022/10/22 02:11:50;;;;;;;10.87;4.80;;;14.50;99.90;;;;;;5031052;28;20281;-79
2022/10/22 02:14:19;;;;;;;11.10;4.40;;;14.50;99.90;;;;;;5031412;28;20205;-79
2022/10/22 02:16:50;;;;;;;8.40;4.37;;;14.50;99.90;;;;;;5032039;28;20313;-79
2022/10/22 02:19:23;;;;;;;9.97;4.67;;;14.50;99.90;;;;;;5031097;28;20234;-80
2022/10/22 02:21:50;;;;;;;10.40;4.20;;;14.60;99.90;;;;;;5031972;28;20202;-79
2022/10/22 02:24:18;;;;;;;10.70;4.27;;;14.60;99.90;;;;;;5031912;28;20206;-79
2022/10/22 02:26:53;;;;;;;8.30;4.57;;;14.60;99.90;;;;;;5032143;28;20520;-80
2022/10/22 02:29:24;;;;;;;9.73;4.50;;;14.60;99.90;;;;;;5032311;28;20221;-80
2022/10/22 02:31:55;;;;;;;9.90;4.23;;;14.60;99.90;;;;;;5031654;28;20229;-79
2022/10/22 02:34:27;;;;;;;5.83;3.87;;;14.60;99.90;;;;;;5031500;28;20206;-81
2022/10/22 02:36:55;;;;;;;8.33;3.93;;;14.60;99.90;;;;;;5032052;28;20210;-79
2022/10/22 02:39:23;;;;;;;9.60;4.37;;;14.60;99.90;;;;;;5031327;28;20226;-82
2022/10/22 02:41:50;;;;;;;7.70;3.63;;;14.60;99.90;;;;;;5032322;28;20751;-81
2022/10/22 02:44:21;;;;;;;10.23;3.97;;;14.50;99.90;;;;;;5031569;28;20215;-81
2022/10/22 02:46:49;;;;;;;10.43;4.13;;;14.60;99.90;;;;;;5031267;28;20274;-80
2022/10/22 02:49:17;;;;;;;11.97;4.10;;;14.50;99.90;;;;;;5032234;28;20201;-81
2022/10/22 02:51:44;;;;;;;12.10;3.97;;;14.60;99.90;;;;;;5032252;28;20213;-82
2022/10/22 02:54:11;;;;;;;12.13;4.20;;;14.50;99.90;;;;;;5033352;28;20487;-82
2022/10/22 02:56:37;;;;;;;9.93;3.60;;;14.50;99.90;;;;;;5035701;28;20218;-80
2022/10/22 02:59:04;;;;;;;7.70;4.10;;;14.50;99.90;;;;;;5036094;28;20226;-83
2022/10/22 03:01:31;;;;;;;8.37;3.73;;;14.50;99.90;;;;;;5035841;28;20203;-83
2022/10/22 03:03:58;;;;;;;10.03;4.00;;;14.50;99.90;;;;;;5036015;28;20234;-81
2022/10/22 03:06:26;;;;;;;8.13;3.47;;;14.40;99.90;;;;;;5036092;28;20208;-81
2022/10/22 03:08:53;;;;;;;5.07;3.67;;;14.40;99.90;;;;;;5035390;28;20195;-79
2022/10/22 03:11:20;;;;;;;7.13;3.77;;;14.40;99.90;;;;;;5035842;28;20241;-80
2022/10/22 03:13:47;;;;;;;11.63;4.27;;;14.40;99.90;;;;;;5035486;28;20563;-80
2022/10/22 03:16:14;;;;;;;9.10;4.73;;;14.40;99.90;;;;;;5035822;28;20199;-80
2022/10/22 03:18:41;;;;;;;7.27;3.57;;;14.40;99.90;;;;;;5035957;28;20250;-81
2022/10/22 03:21:11;;;;;;;13.57;4.03;;;14.40;99.90;;;;;;5035618;28;20295;-83
2022/10/22 03:23:40;;;;;;;9.20;3.67;;;14.40;99.90;;;;;;5035649;28;20199;-81
2022/10/22 03:26:08;;;;;;;9.60;3.90;;;14.40;99.90;;;;;;5039380;28;20216;-80
2022/10/22 03:28:36;;;;;;;12.27;3.77;;;14.40;99.90;;;;;;5041465;28;20502;-81
2022/10/22 03:31:03;;;;;;;10.47;3.40;;;14.30;99.90;;;;;;5035325;28;20230;-81
2022/10/22 03:33:30;;;;;;;7.93;3.67;;;14.30;99.90;;;;;;5035224;28;20285;-81
2022/10/22 03:35:57;;;;;;;11.50;4.20;;;14.30;99.90;;;;;;5051491;28;20623;-81
2022/10/22 03:38:24;;;;;;;6.43;3.57;;;14.30;99.90;;;;;;5055264;28;20225;-81
2022/10/22 03:40:52;;;;;;;6.43;3.30;;;14.30;99.90;;;;;;5051061;28;20712;-81
2022/10/22 03:43:19;;;;;;;10.53;3.40;;;14.30;99.90;;;;;;5034752;28;20281;-81
2022/10/22 03:45:46;;;;;;;10.23;3.50;;;14.30;99.90;;;;;;5050343;28;20210;-81
2022/10/22 03:48:13;;;;;;;10.57;3.50;;;14.30;99.90;;;;;;5054930;28;20201;-81
2022/10/22 03:50:40;;;;;;;8.07;3.40;;;14.30;99.90;;;;;;5053125;28;20194;-81
2022/10/22 03:53:09;;;;;;;8.43;3.33;;;14.30;99.90;;;;;;5055178;28;20206;-82
2022/10/22 03:55:37;;;;;;;6.23;3.77;;;14.30;99.90;;;;;;5054772;28;20304;-80
2022/10/22 03:58:05;;;;;;;8.37;3.80;;;14.30;99.90;;;;;;5053869;28;20201;-81
2022/10/22 04:00:32;;;;;;;6.00;3.37;;;14.30;99.90;;;;;;5041392;28;20210;-81
2022/10/22 04:02:59;;;;;;;13.77;3.70;;;14.30;99.90;;;;;;5033855;28;20209;-82
2022/10/22 04:05:26;;;;;;;8.80;3.73;;;14.30;99.90;;;;;;5034679;28;20233;-82
2022/10/22 04:07:53;;;;;;;12.77;3.77;;;14.30;99.90;;;;;;5034399;28;20202;-81
2022/10/22 04:10:20;;;;;;;8.73;3.40;;;14.30;99.90;;;;;;5048425;28;20666;-80
2022/10/22 04:12:47;;;;;;;11.77;3.60;;;14.30;99.90;;;;;;5053850;28;20229;-81
2022/10/22 04:15:16;;;;;;;17.73;4.30;;;14.30;99.90;;;;;;5053989;28;20205;-83
2022/10/22 04:17:44;;;;;;;7.33;3.10;;;14.40;99.90;;;;;;5053658;28;20255;-82
2022/10/22 04:20:11;;;;;;;10.63;3.57;;;14.30;99.90;;;;;;5036916;28;20296;-80
2022/10/22 04:22:38;;;;;;;7.93;3.30;;;14.40;99.90;;;;;;5034289;28;20230;-78
2022/10/22 04:25:05;;;;;;;8.40;3.07;;;14.30;99.90;;;;;;5034668;28;20199;-81
2022/10/22 04:27:33;;;;;;;9.20;3.70;;;14.30;99.90;;;;;;5034755;28;20201;-82
2022/10/22 04:30:01;;;;;;;11.70;3.83;;;14.30;99.90;;;;;;5034065;28;20202;-80
2022/10/22 04:32:29;;;;;;;12.60;3.60;;;14.30;99.90;;;;;;5033374;28;20202;-79
2022/10/22 04:34:56;;;;;;;9.47;3.60;;;14.30;99.90;;;;;;5033772;28;20202;-80
2022/10/22 04:37:23;;;;;;;7.97;2.93;;;14.30;99.90;;;;;;5033638;28;20214;-79
2022/10/22 04:39:50;;;;;;;9.13;3.53;;;14.30;99.90;;;;;;5033095;28;20241;-80
2022/10/22 04:42:17;;;;;;;7.27;3.47;;;14.30;99.90;;;;;;5034187;28;20312;-80
2022/10/22 04:44:44;;;;;;;9.03;3.00;;;14.30;99.90;;;;;;5033355;28;20680;-81
2022/10/22 04:47:11;;;;;;;8.40;3.30;;;14.30;99.90;;;;;;5050894;28;20255;-82
2022/10/22 04:49:40;;;;;;;7.87;3.10;;;14.30;99.90;;;;;;5053917;28;20194;-81
2022/10/22 04:52:07;;;;;;;12.10;3.80;;;14.30;99.90;;;;;;5052831;28;20621;-81
2022/10/22 04:54:34;;;;;;;8.83;3.20;;;14.30;99.90;;;;;;5049742;28;20237;-80
2022/10/22 04:57:01;;;;;;;11.90;4.17;;;14.30;99.90;;;;;;5033851;28;20213;-81
2022/10/22 04:59:27;;;;;;;6.40;3.03;;;14.30;99.90;;;;;;5032585;28;20234;-81
2022/10/22 05:01:54;;;;;;;12.53;3.60;;;14.20;99.90;;;;;;5033879;28;20591;-81
2022/10/22 05:04:21;;;;;;;8.73;3.43;;;14.20;99.90;;;;;;5033609;28;20230;-78
2022/10/22 05:06:49;;;;;;;8.63;3.57;;;14.20;99.90;;;;;;5032988;28;20194;-81
2022/10/22 05:09:18;;;;;;;5.67;2.70;;;14.20;99.90;;;;;;5051209;28;20197;-79
2022/10/22 05:11:48;;;;;;;6.10;2.97;;;14.20;99.90;;;;;;5053131;28;20225;-81
2022/10/22 05:14:17;;;;;;;7.63;3.43;;;14.10;99.90;;;;;;5052101;28;20205;-80
2022/10/22 05:16:46;;;;;;;7.33;3.37;;;14.10;99.90;;;;;;5036256;28;20290;-79
2022/10/22 05:19:18;;;;;;;10.10;3.73;;;14.00;99.90;;;;;;5032708;28;20230;-81
2022/10/22 05:21:45;;;;;;;10.60;3.80;;;14.00;99.90;;;;;;5032766;28;20187;-81
2022/10/22 05:24:14;;;;;;;11.93;4.00;;;14.00;99.90;;;;;;5033109;28;20202;-81
2022/10/22 05:26:41;;;;;;;10.87;4.00;;;13.90;99.90;;;;;;5032812;28;20210;-80
2022/10/22 05:29:07;;;;;;;8.30;4.20;;;13.90;99.90;;;;;;5032245;28;20206;-82
2022/10/22 05:31:35;;;;;;;13.93;4.47;;;13.80;99.90;;;;;;5032888;28;20213;-81
2022/10/22 05:34:02;;;;;;;14.33;3.87;;;13.80;99.90;;;;;;5032928;28;20199;-82
2022/10/22 05:36:29;;;;;;;8.90;3.90;;;13.80;99.90;;;;;;5032560;28;20511;-81
2022/10/22 05:38:57;;;;;;;11.57;4.00;;;13.80;99.90;;;;;;5032939;28;20197;-80
2022/10/22 05:41:27;;;;;;;8.63;3.40;;;13.80;99.90;;;;;;5051718;28;20205;-81
2022/10/22 05:43:55;;;;;;;13.40;5.03;;;13.70;99.90;;;;;;5047782;28;20661;-83
2022/10/22 05:46:23;;;;;;;11.43;4.37;;;13.70;99.90;;;;;;5033027;28;20198;-82
2022/10/22 05:48:50;;;;;;;8.80;3.70;;;13.70;99.90;;;;;;5032715;28;20281;-80
2022/10/22 05:51:18;;;;;;;9.27;4.23;;;13.70;99.90;;;;;;5033220;28;20206;-80
2022/10/22 05:53:45;;;;;;;6.83;3.53;;;13.60;99.90;;;;;;5040302;28;20204;-82
2022/10/22 05:56:13;;;;;;;11.50;3.33;;;13.60;99.90;;;;;;5052372;28;20221;-80
2022/10/22 05:58:42;;;;;;;9.50;3.67;;;13.60;99.90;;;;;;5052229;28;20202;-79
2022/10/22 06:01:13;;;;;;;13.33;4.13;;;13.60;99.90;;;;;;5048276;28;20548;-81
2022/10/22 06:03:40;;;;;;;7.93;3.63;;;13.60;99.90;;;;;;5051573;28;20493;-82
2022/10/22 06:06:17;;;;;;;7.47;3.33;;;13.60;99.90;;;;;;5032851;28;20230;-81
2022/10/22 06:08:44;;;;;;;7.53;4.03;;;13.60;99.90;;;;;;5032834;28;20202;-83
2022/10/22 06:11:11;;;;;;;8.77;3.83;;;13.70;99.90;;;;;;5032758;28;20295;-83
2022/10/22 06:13:38;;;;;;;8.60;3.97;;;13.70;99.90;;;;;;5033181;28;20199;-80
2022/10/22 06:16:07;;;;;;;9.47;3.73;;;13.70;99.90;;;;;;5032839;28;20209;-80
2022/10/22 06:18:34;;;;;;;10.10;4.10;;;13.70;99.90;;;;;;5047243;28;20306;-81
2022/10/22 06:21:05;;;;;;;9.83;3.50;;;13.80;99.90;;;;;;5033307;28;20627;-79
2022/10/22 06:23:32;;;;;;;7.83;3.23;;;13.80;99.90;;;;;;5031901;28;20257;-82
2022/10/22 06:26:00;;;;;;;9.63;3.63;;;13.80;99.90;;;;;;5032517;28;20229;-81
2022/10/22 06:28:27;;;;;;;8.00;4.13;;;13.80;99.90;;;;;;5034180;28;20642;-81
2022/10/22 06:30:54;;;;;;;12.43;3.60;;;13.80;99.90;;;;;;5036268;28;20207;-81
2022/10/22 06:33:22;;;;;;;8.83;3.17;;;13.80;99.90;;;;;;5036769;28;20210;-83
2022/10/22 06:35:49;;;;;;;11.77;3.63;;;13.90;99.90;;;;;;5037197;28;20206;-82
2022/10/22 06:38:16;;;;;;;13.90;3.40;;;13.90;99.90;;;;;;5036667;28;20296;-81
2022/10/22 06:40:43;;;;;;;7.63;2.70;;;13.90;99.90;;;;;;5037715;28;20227;-84
2022/10/22 06:43:11;;;;;;;10.60;3.57;;;13.90;99.90;;;;;;5036633;28;20257;-83
2022/10/22 06:45:38;;;;;;;8.17;2.97;;;13.90;99.90;;;;;;5036013;28;20199;-81
2022/10/22 06:48:05;;;;;;;10.43;3.70;;;13.90;99.90;;;;;;5037047;28;20202;-81
2022/10/22 06:50:34;;;;;;;8.90;3.40;;;14.00;99.90;;;;;;5036628;28;20634;-84
2022/10/22 06:53:01;;;;;;;14.40;3.73;;;14.00;99.90;;;;;;5035685;28;20209;-82
2022/10/22 06:55:28;;;;;;;10.00;3.90;;;14.00;99.90;;;;;;5056037;28;20309;-79
2022/10/22 06:57:55;;;;;;;7.70;3.40;;;14.10;99.90;;;;;;5055976;28;20497;-81
2022/10/22 07:00:22;;;;;;;8.33;3.33;;;14.10;99.90;;;;;;5054636;28;20221;-81
2022/10/22 07:02:52;;;;;;;14.10;3.53;;;14.10;99.90;;;;;;5040046;28;20203;-82
2022/10/22 07:05:19;;;;;;;12.43;3.00;;;14.10;99.90;;;;;;5035963;28;20852;-80
2022/10/22 07:07:48;;;;;;;9.87;3.60;;;14.10;99.90;;;;;;5039772;28;20469;-81
2022/10/22 07:10:15;;;;;;;12.63;4.20;;;14.20;99.90;;;;;;5040079;28;20218;-81
2022/10/22 07:12:42;;;;;;;8.97;2.97;;;14.20;99.90;;;;;;5038421;28;20238;-80
2022/10/22 07:15:10;;;;;;;8.20;3.47;;;14.20;99.90;;;;;;5039941;28;20614;-82
2022/10/22 07:17:37;;;;;;;12.87;4.40;;;14.20;99.90;;;;;;5038077;28;20201;-81
2022/10/22 07:20:04;;;;;;;9.97;3.27;;;14.30;99.90;;;;;;5035176;28;20309;-79
2022/10/22 07:22:31;;;;;;;10.30;2.97;;;14.30;99.90;;;;;;5038489;28;20212;-80
2022/10/22 07:25:00;;;;;;;10.77;3.53;;;14.40;99.90;;;;;;5046266;28;20203;-79
2022/10/22 07:27:27;;;;;;;11.37;3.33;;;14.40;99.90;;;;;;5038397;28;20206;-79
2022/10/22 07:29:54;;;;;;;6.47;3.00;;;14.40;99.90;;;;;;5050402;28;20198;-78
2022/10/22 07:32:20;;;;;;;12.03;3.50;;;14.40;99.90;;;;;;5046641;28;20202;-80
2022/10/22 07:34:48;;;;;;;9.37;3.37;;;14.40;99.90;;;;;;5051305;28;20208;-79
2022/10/22 07:37:14;;;;;;;11.57;3.47;;;14.50;99.90;;;;;;5044175;28;20226;-80
2022/10/22 07:39:41;;;;;;;10.63;2.97;;;14.50;99.90;;;;;;5046893;28;20252;-80
2022/10/22 07:42:10;;;;;;;9.60;3.17;;;14.50;99.90;;;;;;5051324;28;20206;-79
2022/10/22 07:44:36;;;;;;;11.90;3.30;;;14.50;99.90;;;;;;5053822;28;20572;-79
2022/10/22 07:47:03;;;;;;;8.17;3.17;;;14.50;99.90;;;;;;5053453;28;20296;-78
2022/10/22 07:49:30;;;;;;;9.87;2.83;;;14.50;99.90;;;;;;5033777;28;20237;-80
2022/10/22 07:51:57;;;;;;;10.83;3.20;;;14.60;99.90;;;;;;5034587;28;20278;-79
2022/10/22 07:54:24;;;;;;;10.83;3.47;;;14.60;99.90;;;;;;5034397;28;20226;-80
2022/10/22 07:56:51;;;;;;;9.10;2.73;;;14.60;99.90;;;;;;5033559;28;20206;-81
2022/10/22 07:59:20;;;;;;;12.57;3.47;;;14.60;99.90;;;;;;5034598;28;20194;-82
2022/10/22 08:01:47;;;;;;;6.43;2.90;;;14.60;99.90;;;;;;5034599;28;20215;-81
2022/10/22 08:04:13;;;;;;;18.97;3.70;;;14.70;99.90;;;;;;5034077;28;20209;-80
2022/10/22 08:06:40;;;;;;;11.27;3.07;;;14.70;99.90;;;;;;5034407;28;20202;-81
2022/10/22 08:09:07;;;;;;;14.73;3.40;;;14.80;99.90;;;;;;5034495;28;20194;-82
2022/10/22 08:11:34;;;;;;;16.17;3.27;;;14.90;99.90;;;;;;5034859;28;20244;-81
2022/10/22 08:14:01;;;;;;;19.80;4.63;;;15.00;99.90;;;;;;5034060;28;20260;-78
2022/10/22 08:16:29;;;;;;;23.67;5.60;;;15.00;99.90;;;;;;5033551;28;20213;-80
2022/10/22 08:18:56;;;;;;;18.23;3.93;;;15.10;99.90;;;;;;5034436;28;20206;-80
2022/10/22 08:21:23;;;;;;;15.07;3.23;;;15.20;99.90;;;;;;5052821;28;20236;-83
2022/10/22 08:23:50;;;;;;;14.40;3.67;;;15.30;99.90;;;;;;5054486;28;20292;-89
2022/10/22 08:26:17;;;;;;;15.35;4.15;;;15.30;99.90;;;;;;5037330;28;20198;-82
2022/10/22 08:28:44;;;;;;;17.93;3.60;;;15.40;99.90;;;;;;5033911;28;20197;-80
2022/10/22 08:31:11;;;;;;;20.93;3.93;;;15.40;99.90;;;;;;5034250;28;20620;-80
2022/10/22 08:33:40;;;;;;;17.02;3.50;;;15.50;99.90;;;;;;5033824;28;20202;-82
2022/10/22 08:36:07;;;;;;;19.85;3.83;;;15.50;99.90;;;;;;5034348;28;20289;-80
2022/10/22 08:38:35;;;;;;;17.48;4.07;;;15.60;99.90;;;;;;5033416;28;20222;-80
2022/10/22 08:41:09;;;;;;;20.47;4.17;;;15.70;99.90;;;;;;5033927;28;20576;-85
2022/10/22 08:43:47;;;;;;;22.50;4.93;;;15.80;99.90;;;;;;5033996;28;20818;-80
2022/10/22 08:46:34;;;;;;;21.83;4.97;;;15.90;99.90;;;;;;5033186;28;20305;-80
2022/10/22 08:49:09;;;;;;;21.88;4.57;;;16.00;99.90;;;;;;5034148;28;20199;-82
2022/10/22 08:51:39;;;;;;;13.55;3.88;;;16.10;99.90;;;;;;5033036;28;20503;-86
2022/10/22 08:54:24;;;;;;;15.77;3.83;;;16.10;99.90;;;;;;5035120;28;20285;-83
2022/10/22 08:57:07;;;;;;;16.35;3.88;;;16.20;99.90;;;;;;5034814;28;20281;-85
2022/10/22 08:59:43;;;;;;;14.95;3.83;;;16.20;99.90;;;;;;5032511;28;20195;-81
2022/10/22 09:02:24;;;;;;;18.30;3.33;;;16.30;99.90;;;;;;5046406;28;20193;-89
2022/10/22 09:05:01;;;;;;;17.92;3.58;;;16.30;99.90;;;;;;5054852;28;20197;-88
2022/10/22 09:07:28;;;;;;;15.30;4.43;;;16.30;99.90;;;;;;5054522;28;20220;-79
2022/10/22 09:09:59;;;;;;;19.85;4.05;;;16.20;99.90;;;;;;5054459;28;20212;-81
2022/10/22 09:12:27;;;;;;;16.48;3.88;;;16.20;99.90;;;;;;5053688;28;20735;-81
2022/10/22 09:14:54;;;;;;;18.20;3.88;;;16.20;99.90;;;;;;5050405;28;20780;-87
2022/10/22 09:17:32;;;;;;;16.25;4.25;;;16.20;99.90;;;;;;5034176;28;20199;-86
2022/10/22 09:20:09;;;;;;;24.40;4.65;;;16.30;99.90;;;;;;5033675;28;20563;-87
2022/10/22 09:22:42;;;;;;;23.48;4.80;;;16.40;99.90;;;;;;5034236;28;20269;-84
2022/10/22 09:25:19;;;;;;;19.95;4.45;;;16.50;99.90;;;;;;5050857;28;20293;-84
2022/10/22 09:27:46;;;;;;;22.58;3.90;;;16.60;99.90;;;;;;5050339;28;20201;-86
2022/10/22 09:30:17;;;;;;;18.80;4.75;;;16.60;99.90;;;;;;5034711;28;20209;-85
2022/10/22 09:32:44;;;;;;;17.25;4.47;;;16.80;99.90;;;;;;5033736;28;20191;-78
2022/10/22 09:35:14;;;;;;;19.52;4.15;;;16.70;99.90;;;;;;5033245;28;20202;-80
2022/10/22 09:37:49;;;;;;;20.73;4.18;;;16.70;99.90;;;;;;5033345;28;20672;-93
2022/10/22 09:40:17;;;;;;;16.05;3.70;;;16.80;99.90;;;;;;5033682;28;20222;-80
2022/10/22 09:42:45;;;;;;;18.25;4.57;;;16.70;99.90;;;;;;5031847;28;20195;-79
2022/10/22 09:45:19;;;;;;;21.77;4.55;;;16.70;99.90;;;;;;5032451;28;20202;-79
2022/10/22 09:47:47;;;;;;;17.98;3.88;;;16.60;99.90;;;;;;5036060;28;20209;-84
2022/10/22 09:50:25;;;;;;;18.38;4.53;;;16.60;99.90;;;;;;5051363;28;20204;-77
2022/10/22 09:52:59;;;;;;;15.05;4.32;;;16.50;99.90;;;;;;5030794;28;20207;-78
2022/10/22 09:55:26;;;;;;;16.17;4.15;;;16.40;99.90;;;;;;5031504;28;20649;-79
2022/10/22 09:57:54;;;;;;;15.80;3.38;;;16.40;99.90;;;;;;5044857;28;20624;-79
2022/10/22 10:00:23;;;;;;;16.13;3.33;;;16.40;99.90;;;;;;5052117;28;20226;-78
2022/10/22 10:02:55;;;;;;;10.25;2.55;;;16.30;99.90;;;;;;5051234;28;20485;-79
2022/10/22 10:05:29;;;;;;;10.73;2.85;;;16.30;99.90;;;;;;5039528;28;20657;-79
2022/10/22 10:07:56;;;;;;;9.25;2.78;;;16.30;99.90;;;;;;5031883;28;20202;-80
2022/10/22 10:10:33;;;;;;;9.70;2.70;;;16.30;99.90;;;;;;5031773;28;20257;-80
2022/10/22 10:13:10;;;;;;;15.50;3.22;;;16.30;99.90;;;;;;5032528;28;20214;-78
2022/10/22 10:15:43;;;;;;;11.55;2.53;;;16.30;99.90;;;;;;5032012;28;20582;-79
2022/10/22 10:18:23;;;;;;;15.18;3.13;;;16.30;99.90;;;;;;5032343;28;20290;-80
2022/10/22 10:20:58;;;;;;;13.80;3.25;;;16.30;99.90;;;;;;5032013;28;20253;-79
2022/10/22 10:23:33;;;;;;;13.85;2.85;;;16.40;99.90;;;;;;5031368;28;20271;-81
2022/10/22 10:26:08;;;;;;;15.57;3.55;;;16.50;99.90;;;;;;5041366;28;20206;-81
2022/10/22 10:28:52;;;;;;;13.50;3.70;;;16.60;99.90;;;;;;5032163;28;20636;-78
2022/10/22 10:31:25;;;;;;;10.32;3.53;;;16.70;99.90;;;;;;5031613;28;20191;-80
2022/10/22 10:34:04;;;;;;;11.82;3.20;;;16.80;99.90;;;;;;5032328;28;20272;-80
2022/10/22 10:36:42;;;;;;;9.82;3.20;;;16.80;99.90;;;;;;5032378;28;20182;-86
2022/10/22 10:39:12;;;;;;;15.13;3.40;;;16.90;99.90;;;;;;5031876;28;20206;-79
2022/10/22 10:41:51;;;;;;;13.43;3.13;;;16.80;99.90;;;;;;5032108;28;20600;-79
2022/10/22 10:44:31;;;;;;;13.77;3.00;;;16.80;99.90;;;;;;5030791;28;20206;-81
2022/10/22 10:47:11;;;;;;;10.27;2.67;;;16.80;99.90;;;;;;5032207;28;20187;-79
2022/10/22 10:49:38;;;;;;;13.23;3.25;;;16.80;99.90;;;;;;5032053;28;20203;-80
2022/10/22 10:52:17;;;;;;;9.75;3.42;;;16.80;99.90;;;;;;5030738;28;20205;-81
2022/10/22 10:54:51;;;;;;;14.25;4.22;;;17.00;99.90;;;;;;5031841;28;20316;-80
2022/10/22 10:57:30;;;;;;;16.48;3.70;;;17.20;99.90;;;;;;5032171;28;20194;-82
2022/10/22 11:00:05;;;;;;;16.33;2.80;;;17.30;99.90;;;;;;5031425;28;20669;-79
2022/10/22 11:03:00;;;;;;;17.63;3.17;;;17.40;99.90;;;;;;5031589;28;20222;-78
2022/10/22 11:05:40;;;;;;;16.05;3.13;;;17.50;99.90;;;;;;5051307;28;20206;-81
2022/10/22 11:08:14;;;;;;;15.10;2.58;;;17.50;99.90;;;;;;5052189;28;20194;-84
2022/10/22 11:10:44;;;;;;;6.68;2.10;;;17.40;99.90;;;;;;5050296;28;20198;-79
2022/10/22 11:13:18;;;;;;;11.10;2.05;;;17.40;99.90;;;;;;5031762;28;20191;-80
2022/10/22 11:15:50;;;;;;;10.40;2.17;;;17.50;99.90;;;;;;5033321;28;20691;-79
2022/10/22 11:18:24;;;;;;;8.73;1.80;;;17.50;99.90;;;;;;5035654;28;20587;-79
2022/10/22 11:20:57;;;;;;;9.88;2.10;;;17.50;99.90;;;;;;5034800;28;20514;-78
2022/10/22 11:23:30;;;;;;;7.88;2.25;;;17.40;99.90;;;;;;5035648;28;20195;-81
2022/10/22 11:25:57;;;;;;;10.55;2.63;;;17.40;99.90;;;;;;5034913;28;20200;-80
2022/10/22 11:28:29;;;;;;;9.93;2.75;;;17.40;99.90;;;;;;5035386;28;20202;-78
2022/10/22 11:31:01;;;;;;;11.70;2.95;;;17.50;99.90;;;;;;5053177;28;20213;-80
2022/10/22 11:33:36;;;;;;;15.38;3.08;;;17.60;99.90;;;;;;5054404;28;20281;-82
2022/10/22 11:36:06;;;;;;;12.73;3.00;;;17.60;99.90;;;;;;5045347;28;20206;-81
2022/10/22 11:38:35;;;;;;;19.90;3.67;;;17.60;99.90;;;;;;5034849;28;20208;-78
2022/10/22 11:41:06;;;;;;;15.10;3.63;;;17.60;99.90;;;;;;5033711;28;20642;-80
2022/10/22 11:43:35;;;;;;;9.95;2.72;;;17.60;99.90;;;;;;5047147;28;20232;-77
2022/10/22 11:46:22;;;;;;;15.55;2.90;;;17.70;99.90;;;;;;5054461;28;20194;-84
2022/10/22 11:49:02;;;;;;;12.57;3.05;;;17.70;99.90;;;;;;5053793;28;20590;-77
2022/10/22 11:51:34;;;;;;;18.65;4.00;;;17.80;99.90;;;;;;5054580;28;20606;-78
2022/10/22 11:54:30;;;;;;;14.05;3.20;;;17.90;99.90;;;;;;5034076;28;20617;-77
2022/10/22 11:57:12;;;;;;;15.07;3.10;;;17.90;99.90;;;;;;5034164;28;20203;-77
2022/10/22 11:59:44;;;;;;;11.32;2.88;;;17.90;99.90;;;;;;5034445;28;20439;-80
2022/10/22 12:02:39;;;;;;;23.00;4.28;;;18.00;99.90;;;;;;5033988;28;20217;-80
2022/10/22 12:05:32;;;;;;;16.52;3.33;;;18.10;99.90;;;;;;5032364;28;20378;-83
2022/10/22 12:08:03;;;;;;;14.90;3.42;;;18.10;99.90;;;;;;5034109;28;20216;-78
2022/10/22 12:10:36;;;;;;;15.60;3.38;;;18.10;99.90;;;;;;5034729;28;20198;-77
2022/10/22 12:13:11;;;;;;;14.02;3.17;;;18.10;99.90;;;;;;5033984;28;20198;-84
2022/10/22 12:15:47;;;;;;;15.20;2.97;;;18.00;99.90;;;;;;5033279;28;20186;-78
2022/10/22 12:18:15;;;;;;;13.05;3.20;;;17.90;99.90;;;;;;5034278;28;20196;-78
2022/10/22 12:20:42;;;;;;;13.63;3.38;;;17.90;99.90;;;;;;5033756;28;20201;-83
2022/10/22 12:23:11;;;;;;;16.20;3.95;;;17.80;99.90;;;;;;5034066;28;20281;-78
2022/10/22 12:25:40;;;;;;;12.05;3.55;;;17.70;99.90;;;;;;5042600;28;20297;-81
2022/10/22 12:28:12;;;;;;;21.13;4.72;;;17.60;99.90;;;;;;5052867;28;20610;-79
2022/10/22 12:30:40;;;;;;;14.55;3.95;;;17.60;99.90;;;;;;5052040;28;20240;-77
2022/10/22 12:33:17;;;;;;;17.15;4.28;;;17.80;99.90;;;;;;5042757;28;20203;-78
2022/10/22 12:35:46;;;;;;;20.88;4.60;;;17.90;99.90;;;;;;5044420;28;20616;-81
2022/10/22 12:38:14;;;;;;;17.55;4.43;;;17.90;99.90;;;;;;5046456;28;20210;-82
2022/10/22 12:40:43;;;;;;;14.73;4.15;;;18.00;99.90;;;;;;5038215;28;20203;-80
2022/10/22 12:43:13;;;;;;;15.50;4.22;;;18.10;99.90;;;;;;5033816;28;20314;-82
2022/10/22 12:45:41;;;;;;;13.90;3.58;;;18.10;99.90;;;;;;5034273;28;20190;-80
2022/10/22 12:48:14;;;;;;;18.38;3.65;;;18.20;99.90;;;;;;5034333;28;20238;-83
2022/10/22 12:50:43;;;;;;;12.85;3.33;;;18.20;99.90;;;;;;5033629;28;20289;-81
2022/10/22 12:53:15;;;;;;;16.35;4.30;;;18.10;99.90;;;;;;5033687;28;20285;-83
2022/10/22 12:55:48;;;;;;;16.50;4.00;;;18.00;99.90;;;;;;5039411;28;20324;-82